Time;durP1;ratioP1;P1;durP2;ratioP2;P2;SDS_P1;SDS_P2;PMS_P1;PMS_P2;Temp;Humidity;BMP_temperature;BMP_pressure;BME280_temperature;BME280_humidity;BME280_pressure;Samples;Min_cycle;Max_cycle;Signal;HPM_P1;HPM_P2
2022/10/09 00:01:32;;;;;;;10.10;7.38;;;;;;;;;;5076989;28;20036;-74
2022/10/09 00:03:58;;;;;;;13.98;8.52;;;;;;;;;;5077593;28;20039;-74
2022/10/09 00:06:27;;;;;;;15.10;8.43;;;;;;;;;;5077784;28;20036;-74
2022/10/09 00:08:53;;;;;;;13.25;7.47;;;;;;;;;;5076811;28;20040;-74
2022/10/09 00:11:21;;;;;;;12.73;7.65;;;;;;;;;;5077740;28;20071;-74
2022/10/09 00:13:47;;;;;;;14.02;7.43;;;;;;;;;;5077230;28;20085;-74
2022/10/09 00:16:14;;;;;;;12.13;7.50;;;;;;;;;;5077105;28;20048;-74
2022/10/09 00:18:41;;;;;;;11.30;7.80;;;;;;;;;;5077215;28;20518;-74
2022/10/09 00:21:16;;;;;;;14.93;9.32;;;;;;;;;;5077035;28;20128;-74
2022/10/09 00:23:42;;;;;;;14.50;7.70;;;;;;;;;;5077545;28;20119;-74
2022/10/09 00:26:08;;;;;;;11.32;8.00;;;;;;;;;;5076914;28;20044;-73
2022/10/09 00:28:34;;;;;;;8.98;7.30;;;;;;;;;;5076263;28;20029;-74
2022/10/09 00:31:03;;;;;;;9.27;6.18;;;;;;;;;;5076680;28;20067;-74
2022/10/09 00:33:29;;;;;;;9.77;6.70;;;;;;;;;;5077080;28;20052;-74
2022/10/09 00:35:56;;;;;;;10.30;6.65;;;;;;;;;;5076473;28;20106;-74
2022/10/09 00:38:22;;;;;;;11.73;6.80;;;;;;;;;;5076649;28;20491;-75
2022/10/09 00:40:48;;;;;;;9.93;6.90;;;;;;;;;;5076641;28;20055;-74
2022/10/09 00:43:15;;;;;;;17.38;7.18;;;;;;;;;;5076956;28;20075;-74
2022/10/09 00:45:44;;;;;;;9.27;6.63;;;;;;;;;;5076550;28;20119;-74
2022/10/09 00:48:11;;;;;;;11.43;7.18;;;;;;;;;;5076875;28;20037;-74
2022/10/09 00:50:42;;;;;;;15.23;6.72;;;;;;;;;;5076917;28;20044;-74
2022/10/09 00:53:08;;;;;;;;;;;;;;;;;;5077121;28;20086;-74
2022/10/09 00:55:35;;;;;;;10.95;7.28;;;;;;;;;;5076628;28;19920;-75
2022/10/09 00:58:02;;;;;;;8.82;7.13;;;;;;;;;;5076373;28;20044;-74
2022/10/09 01:00:28;;;;;;;8.35;7.00;;;;;;;;;;5077332;28;20063;-74
2022/10/09 01:02:54;;;;;;;10.10;7.18;;;;;;;;;;5077094;28;20070;-74
2022/10/09 01:05:37;;;;;;;11.07;6.95;;;;;;;;;;5076639;28;20044;-74
2022/10/09 01:08:10;;;;;;;10.43;7.20;;;;;;;;;;5076068;28;20045;-74
2022/10/09 01:10:39;;;;;;;10.80;7.82;;;;;;;;;;5075919;28;20063;-74
2022/10/09 01:13:05;;;;;;;11.43;7.45;;;;;;;;;;5076163;28;20037;-74
2022/10/09 01:15:43;;;;;;;12.88;6.43;;;;;;;;;;5077000;28;20044;-74
2022/10/09 01:18:25;;;;;;;10.35;6.78;;;;;;;;;;5076174;28;20036;-74
2022/10/09 01:20:55;;;;;;;11.05;6.95;;;;;;;;;;5076132;28;20131;-74
2022/10/09 01:23:39;;;;;;;14.82;6.82;;;;;;;;;;5076430;28;20044;-74
2022/10/09 01:26:15;;;;;;;11.48;6.05;;;;;;;;;;5076573;28;20131;-74
2022/10/09 01:28:47;;;;;;;10.25;6.28;;;;;;;;;;5075442;28;20119;-74
2022/10/09 01:31:13;;;;;;;11.60;6.35;;;;;;;;;;5075682;28;20040;-74
2022/10/09 01:33:40;;;;;;;8.23;5.95;;;;;;;;;;5076007;28;20055;-74
2022/10/09 01:36:07;;;;;;;11.07;6.82;;;;;;;;;;5075418;28;20056;-74
2022/10/09 01:38:34;;;;;;;12.02;6.47;;;;;;;;;;5075651;28;20036;-74
2022/10/09 01:41:01;;;;;;;10.07;6.90;;;;;;;;;;5075180;28;20127;-74
2022/10/09 01:43:27;;;;;;;12.82;6.18;;;;;;;;;;5075124;28;20124;-74
2022/10/09 01:46:13;;;;;;;13.77;6.78;;;;;;;;;;5075771;28;20040;-74
2022/10/09 01:48:40;;;;;;;13.55;6.15;;;;;;;;;;5075254;28;20038;-74
2022/10/09 01:51:06;;;;;;;11.70;5.60;;;;;;;;;;5075795;28;20123;-74
2022/10/09 01:53:33;;;;;;;10.45;6.10;;;;;;;;;;5075112;28;20046;-74
2022/10/09 01:56:07;;;;;;;10.32;5.85;;;;;;;;;;5075432;28;20543;-74
2022/10/09 01:58:33;;;;;;;11.20;7.10;;;;;;;;;;5075189;28;20066;-73
2022/10/09 02:01:08;;;;;;;8.32;6.13;;;;;;;;;;5075483;28;20040;-74
2022/10/09 02:03:35;;;;;;;9.13;6.15;;;;;;;;;;5075613;28;20032;-74
2022/10/09 02:06:03;;;;;;;12.55;6.20;;;;;;;;;;5075320;28;20043;-74
2022/10/09 02:08:32;;;;;;;10.40;5.63;;;;;;;;;;5075638;28;20036;-74
2022/10/09 02:10:59;;;;;;;11.43;6.60;;;;;;;;;;5075412;28;20048;-73
2022/10/09 02:13:25;;;;;;;7.80;5.82;;;;;;;;;;5075149;28;20040;-74
2022/10/09 02:16:05;;;;;;;11.63;6.70;;;;;;;;;;5075423;28;20040;-74
2022/10/09 02:18:39;;;;;;;12.18;6.30;;;;;;;;;;5075368;28;20063;-74
2022/10/09 02:21:16;;;;;;;7.70;6.03;;;;;;;;;;5074781;28;20094;-74
2022/10/09 02:23:44;;;;;;;10.40;5.55;;;;;;;;;;5075154;28;20040;-74
2022/10/09 02:26:11;;;;;;;8.38;5.90;;;;;;;;;;5074728;28;20040;-74
2022/10/09 02:28:37;;;;;;;10.77;6.05;;;;;;;;;;5074852;28;20037;-73
2022/10/09 02:31:06;;;;;;;6.97;5.57;;;;;;;;;;5074961;28;20040;-74
2022/10/09 02:33:33;;;;;;;8.40;6.28;;;;;;;;;;5075232;28;20040;-74
2022/10/09 02:36:00;;;;;;;9.43;5.53;;;;;;;;;;5074905;28;20040;-73
2022/10/09 02:38:26;;;;;;;7.22;5.45;;;;;;;;;;5074841;28;20040;-74
2022/10/09 02:40:52;;;;;;;7.80;5.65;;;;;;;;;;5074570;28;20044;-74
2022/10/09 02:43:18;;;;;;;12.23;5.78;;;;;;;;;;5075083;28;20047;-74
2022/10/09 02:45:44;;;;;;;8.20;5.75;;;;;;;;;;5075085;28;20040;-74
2022/10/09 02:48:10;;;;;;;7.18;5.45;;;;;;;;;;5074757;28;20041;-74
2022/10/09 02:50:37;;;;;;;8.18;5.20;;;;;;;;;;5074935;28;20143;-73
2022/10/09 02:53:03;;;;;;;7.15;5.88;;;;;;;;;;5075287;28;20049;-74
2022/10/09 02:55:29;;;;;;;11.38;6.15;;;;;;;;;;5074886;28;20249;-74
2022/10/09 02:57:55;;;;;;;7.60;5.35;;;;;;;;;;5074456;28;20085;-74
2022/10/09 03:00:21;;;;;;;9.45;5.53;;;;;;;;;;5074651;28;20072;-73
2022/10/09 03:02:47;;;;;;;7.93;5.18;;;;;;;;;;5075257;28;20052;-74
2022/10/09 03:05:13;;;;;;;6.45;5.75;;;;;;;;;;5074338;28;20045;-74
2022/10/09 03:07:40;;;;;;;9.00;6.10;;;;;;;;;;5074303;28;20064;-74
2022/10/09 03:10:06;;;;;;;8.77;5.38;;;;;;;;;;5074417;28;20053;-74
2022/10/09 03:12:32;;;;;;;10.32;5.30;;;;;;;;;;5075125;28;20040;-74
2022/10/09 03:14:58;;;;;;;8.35;5.15;;;;;;;;;;5074113;28;20506;-74
2022/10/09 03:17:24;;;;;;;8.52;5.38;;;;;;;;;;5074776;28;20040;-74
2022/10/09 03:19:50;;;;;;;10.27;4.95;;;;;;;;;;5074432;28;20110;-74
2022/10/09 03:22:16;;;;;;;7.97;5.30;;;;;;;;;;5074708;28;20044;-74
2022/10/09 03:24:43;;;;;;;8.93;5.65;;;;;;;;;;5074435;28;20041;-74
2022/10/09 03:27:09;;;;;;;8.63;5.53;;;;;;;;;;5074109;28;20040;-74
2022/10/09 03:29:35;;;;;;;6.85;4.70;;;;;;;;;;5074144;28;20048;-74
2022/10/09 03:32:01;;;;;;;8.73;5.35;;;;;;;;;;5075278;28;20040;-74
2022/10/09 03:34:27;;;;;;;8.88;5.18;;;;;;;;;;5078618;28;20044;-74
2022/10/09 03:36:53;;;;;;;7.75;4.70;;;;;;;;;;5078163;28;20090;-74
2022/10/09 03:39:19;;;;;;;7.43;4.90;;;;;;;;;;5077831;28;20121;-74
2022/10/09 03:41:45;;;;;;;9.18;4.93;;;;;;;;;;5077753;28;20047;-74
2022/10/09 03:44:11;;;;;;;11.75;5.03;;;;;;;;;;5077848;28;20152;-74
2022/10/09 03:46:38;;;;;;;6.88;4.95;;;;;;;;;;5077635;28;20040;-74
2022/10/09 03:49:04;;;;;;;8.15;5.10;;;;;;;;;;5077817;28;20048;-74
2022/10/09 03:51:30;;;;;;;9.27;5.25;;;;;;;;;;5077894;28;20039;-74
2022/10/09 03:53:57;;;;;;;8.77;5.65;;;;;;;;;;5077463;28;20098;-74
2022/10/09 03:56:23;;;;;;;7.22;5.20;;;;;;;;;;5077808;28;20056;-74
2022/10/09 03:58:49;;;;;;;13.88;5.32;;;;;;;;;;5077281;28;20044;-74
2022/10/09 04:01:15;;;;;;;10.30;5.80;;;;;;;;;;5077433;28;20499;-74
2022/10/09 04:03:41;;;;;;;11.20;5.50;;;;;;;;;;5077795;28;20045;-73
2022/10/09 04:06:07;;;;;;;8.30;5.70;;;;;;;;;;5077867;28;20093;-74
2022/10/09 04:08:34;;;;;;;8.45;5.05;;;;;;;;;;5077563;28;20036;-74
2022/10/09 04:11:02;;;;;;;9.18;4.72;;;;;;;;;;5077424;28;20147;-74
2022/10/09 04:13:28;;;;;;;11.13;5.45;;;;;;;;;;5077503;28;20040;-74
2022/10/09 04:15:55;;;;;;;7.55;5.22;;;;;;;;;;5077453;28;20036;-74
2022/10/09 04:18:21;;;;;;;8.93;5.47;;;;;;;;;;5077326;28;20487;-74
2022/10/09 04:20:54;;;;;;;14.50;4.88;;;;;;;;;;5077067;28;20098;-74
2022/10/09 04:23:22;;;;;;;9.95;5.10;;;;;;;;;;5077118;28;20119;-74
2022/10/09 04:25:48;;;;;;;9.38;4.97;;;;;;;;;;5077233;28;20047;-74
2022/10/09 04:28:14;;;;;;;7.65;4.47;;;;;;;;;;5076742;28;20361;-73
2022/10/09 04:30:40;;;;;;;7.13;4.80;;;;;;;;;;5077061;28;20109;-73
2022/10/09 04:33:06;;;;;;;6.40;4.80;;;;;;;;;;5077137;28;20045;-74
2022/10/09 04:35:33;;;;;;;7.95;4.72;;;;;;;;;;5077849;28;20036;-74
2022/10/09 04:37:59;;;;;;;14.13;5.15;;;;;;;;;;5077008;28;20040;-74
2022/10/09 04:40:25;;;;;;;7.97;4.40;;;;;;;;;;5076975;28;20048;-74
2022/10/09 04:42:51;;;;;;;9.32;5.00;;;;;;;;;;5076317;28;20411;-74
2022/10/09 04:45:17;;;;;;;9.88;5.05;;;;;;;;;;5077111;28;20041;-74
2022/10/09 04:47:43;;;;;;;10.70;5.15;;;;;;;;;;5076890;28;20039;-74
2022/10/09 04:50:09;;;;;;;9.45;5.40;;;;;;;;;;5076437;28;20125;-74
2022/10/09 04:52:35;;;;;;;10.60;5.80;;;;;;;;;;5077334;28;20051;-74
2022/10/09 04:55:02;;;;;;;9.52;5.30;;;;;;;;;;5076088;28;20132;-74
2022/10/09 04:57:28;;;;;;;15.75;5.75;;;;;;;;;;5076279;28;20123;-74
2022/10/09 04:59:54;;;;;;;14.65;6.40;;;;;;;;;;5076146;28;20052;-74
2022/10/09 05:02:20;;;;;;;12.00;5.90;;;;;;;;;;5075610;28;20553;-74
2022/10/09 05:04:46;;;;;;;14.77;5.72;;;;;;;;;;5074838;28;20085;-75
2022/10/09 05:07:12;;;;;;;7.47;5.43;;;;;;;;;;5075090;28;20040;-75
2022/10/09 05:09:38;;;;;;;11.35;5.10;;;;;;;;;;5074373;28;20044;-75
2022/10/09 05:12:05;;;;;;;12.10;5.78;;;;;;;;;;5076236;28;20036;-75
2022/10/09 05:14:31;;;;;;;10.95;5.82;;;;;;;;;;5074696;28;20072;-75
2022/10/09 05:17:01;;;;;;;7.50;5.30;;;;;;;;;;5075844;28;20040;-75
2022/10/09 05:19:28;;;;;;;9.45;5.90;;;;;;;;;;5073947;28;20067;-75
2022/10/09 05:21:54;;;;;;;9.90;5.65;;;;;;;;;;5073953;28;20036;-74
2022/10/09 05:24:20;;;;;;;11.88;5.30;;;;;;;;;;5072882;28;20384;-74
2022/10/09 05:26:46;;;;;;;8.98;5.15;;;;;;;;;;5070006;28;20037;-75
2022/10/09 05:29:12;;;;;;;8.30;5.60;;;;;;;;;;5074138;28;20045;-76
2022/10/09 05:31:39;;;;;;;11.45;5.45;;;;;;;;;;5074265;28;20045;-75
2022/10/09 05:34:05;;;;;;;9.25;5.35;;;;;;;;;;5075102;28;20036;-75
2022/10/09 05:36:31;;;;;;;8.30;5.18;;;;;;;;;;5071727;28;20147;-75
2022/10/09 05:38:59;;;;;;;8.68;5.07;;;;;;;;;;5073388;28;20040;-74
2022/10/09 05:41:25;;;;;;;7.85;5.03;;;;;;;;;;5074250;28;20033;-74
2022/10/09 05:43:51;;;;;;;11.02;5.55;;;;;;;;;;5074263;28;20032;-73
2022/10/09 05:46:19;;;;;;;10.57;5.22;;;;;;;;;;5074246;28;20048;-75
2022/10/09 05:48:50;;;;;;;9.13;5.45;;;;;;;;;;5072499;28;20047;-74
2022/10/09 05:51:18;;;;;;;8.32;5.00;;;;;;;;;;5074297;28;20055;-75
2022/10/09 05:53:45;;;;;;;10.57;5.55;;;;;;;;;;5075198;28;20040;-74
2022/10/09 05:56:12;;;;;;;13.07;5.20;;;;;;;;;;5074668;28;20194;-75
2022/10/09 05:58:38;;;;;;;12.32;5.65;;;;;;;;;;5074329;28;20043;-75
2022/10/09 06:01:05;;;;;;;9.50;5.28;;;;;;;;;;5074305;28;20052;-74
2022/10/09 06:03:31;;;;;;;11.32;5.30;;;;;;;;;;5074563;28;20040;-74
2022/10/09 06:06:01;;;;;;;10.27;5.65;;;;;;;;;;5075013;28;20449;-75
2022/10/09 06:08:27;;;;;;;7.55;5.57;;;;;;;;;;5074934;28;20083;-73
2022/10/09 06:10:53;;;;;;;13.23;5.65;;;;;;;;;;5075030;28;20106;-73
2022/10/09 06:13:19;;;;;;;9.30;5.65;;;;;;;;;;5075541;28;20043;-73
2022/10/09 06:15:54;;;;;;;8.73;5.30;;;;;;;;;;5074064;28;20044;-73
2022/10/09 06:18:20;;;;;;;12.23;5.20;;;;;;;;;;5074063;28;20062;-73
2022/10/09 06:20:53;;;;;;;10.00;4.97;;;;;;;;;;5074411;28;20119;-73
2022/10/09 06:23:20;;;;;;;13.85;5.35;;;;;;;;;;5074297;28;20033;-73
2022/10/09 06:25:52;;;;;;;9.05;4.93;;;;;;;;;;5074337;28;20040;-73
2022/10/09 06:28:18;;;;;;;12.73;5.80;;;;;;;;;;5074083;28;20119;-73
2022/10/09 06:30:44;;;;;;;9.98;5.40;;;;;;;;;;5071707;28;20053;-73
2022/10/09 06:33:10;;;;;;;7.25;4.78;;;;;;;;;;5075480;28;20047;-73
2022/10/09 06:35:36;;;;;;;11.30;5.47;;;;;;;;;;5075160;28;20056;-73
2022/10/09 06:38:03;;;;;;;8.73;4.82;;;;;;;;;;5074569;28;20036;-73
2022/10/09 06:40:29;;;;;;;8.73;5.18;;;;;;;;;;5075120;28;20044;-73
2022/10/09 06:42:55;;;;;;;11.40;5.20;;;;;;;;;;5074977;28;20478;-73
2022/10/09 06:45:21;;;;;;;12.57;4.93;;;;;;;;;;5075082;28;20124;-73
2022/10/09 06:47:47;;;;;;;26.60;17.63;;;;;;;;;;5075020;28;20043;-73
2022/10/09 06:50:14;;;;;;;16.67;10.43;;;;;;;;;;5074659;28;20052;-73
2022/10/09 06:52:41;;;;;;;9.52;5.10;;;;;;;;;;5073919;28;20040;-72
2022/10/09 06:55:07;;;;;;;11.52;5.00;;;;;;;;;;5074542;28;20080;-72
2022/10/09 06:57:33;;;;;;;9.23;4.72;;;;;;;;;;5074456;28;20115;-72
2022/10/09 07:00:00;;;;;;;7.72;5.38;;;;;;;;;;5074702;28;20100;-72
2022/10/09 07:02:26;;;;;;;6.90;5.15;;;;;;;;;;5074410;28;20044;-72
2022/10/09 07:04:52;;;;;;;10.30;5.20;;;;;;;;;;5074603;28;20044;-72
2022/10/09 07:07:18;;;;;;;10.23;5.45;;;;;;;;;;5076350;28;20036;-72
2022/10/09 07:09:44;;;;;;;9.45;5.57;;;;;;;;;;5078619;28;20049;-72
2022/10/09 07:12:10;;;;;;;8.10;5.10;;;;;;;;;;5079103;28;20128;-72
2022/10/09 07:14:36;;;;;;;9.70;5.78;;;;;;;;;;5078443;28;20040;-73
2022/10/09 07:17:04;;;;;;;10.25;5.72;;;;;;;;;;5078581;28;20126;-73
2022/10/09 07:19:30;;;;;;;7.40;5.05;;;;;;;;;;5078463;28;20151;-72
2022/10/09 07:21:56;;;;;;;6.85;5.20;;;;;;;;;;5078463;28;20503;-73
2022/10/09 07:24:26;;;;;;;10.52;5.32;;;;;;;;;;5078012;28;20105;-73
2022/10/09 07:26:55;;;;;;;10.80;5.65;;;;;;;;;;5078008;28;20500;-73
2022/10/09 07:29:21;;;;;;;7.95;4.57;;;;;;;;;;5078035;28;20055;-74
2022/10/09 07:31:48;;;;;;;33.88;23.45;;;;;;;;;;5078491;28;20040;-73
2022/10/09 07:34:15;;;;;;;91.18;66.82;;;;;;;;;;5069978;28;20048;-73
2022/10/09 07:36:41;;;;;;;8.10;5.32;;;;;;;;;;5056851;28;20037;-72
2022/10/09 07:39:07;;;;;;;5.70;4.40;;;;;;;;;;5057258;28;20459;-73
2022/10/09 07:41:34;;;;;;;7.88;4.68;;;;;;;;;;5056775;28;20068;-73
2022/10/09 07:44:00;;;;;;;5.53;4.63;;;;;;;;;;5056347;28;20128;-73
2022/10/09 07:46:27;;;;;;;8.38;4.72;;;;;;;;;;5056642;28;20580;-73
2022/10/09 07:48:53;;;;;;;10.25;4.88;;;;;;;;;;5057116;28;20067;-73
2022/10/09 07:51:23;;;;;;;9.02;4.85;;;;;;;;;;5056754;28;20048;-73
2022/10/09 07:53:50;;;;;;;8.90;5.25;;;;;;;;;;5056852;28;20434;-73
2022/10/09 07:56:17;;;;;;;6.20;5.00;;;;;;;;;;5055875;28;20056;-73
2022/10/09 07:58:48;;;;;;;11.38;5.93;;;;;;;;;;5068708;28;20036;-73
2022/10/09 08:01:14;;;;;;;8.95;5.75;;;;;;;;;;5076776;28;20044;-73
2022/10/09 08:03:40;;;;;;;8.82;5.40;;;;;;;;;;5076342;28;20165;-73
2022/10/09 08:06:06;;;;;;;11.07;5.65;;;;;;;;;;5076661;28;20044;-73
2022/10/09 08:08:33;;;;;;;8.50;5.40;;;;;;;;;;5076719;28;20068;-73
2022/10/09 08:10:59;;;;;;;8.52;5.13;;;;;;;;;;5076139;28;20166;-73
2022/10/09 08:13:25;;;;;;;7.60;4.88;;;;;;;;;;5076025;28;20067;-73
2022/10/09 08:15:52;;;;;;;7.30;4.43;;;;;;;;;;5076729;28;20123;-73
2022/10/09 08:18:18;;;;;;;5.75;4.25;;;;;;;;;;5076282;28;20044;-73
2022/10/09 08:20:44;;;;;;;9.60;6.45;;;;;;;;;;5075897;28;20495;-74
2022/10/09 08:23:10;;;;;;;24.65;17.88;;;;;;;;;;5076052;28;20403;-74
2022/10/09 08:25:36;;;;;;;11.15;7.05;;;;;;;;;;5076208;28;20037;-73
2022/10/09 08:28:03;;;;;;;9.95;5.57;;;;;;;;;;5075017;28;20060;-73
2022/10/09 08:30:30;;;;;;;9.50;4.55;;;;;;;;;;5076127;28;20051;-73
2022/10/09 08:32:56;;;;;;;6.85;4.40;;;;;;;;;;5076728;28;20054;-73
2022/10/09 08:35:22;;;;;;;6.80;4.10;;;;;;;;;;5075573;28;20063;-73
2022/10/09 08:37:48;;;;;;;8.57;4.30;;;;;;;;;;5076279;28;20032;-73
2022/10/09 08:40:16;;;;;;;11.40;4.57;;;;;;;;;;5076123;28;20051;-73
2022/10/09 08:42:46;;;;;;;7.10;4.85;;;;;;;;;;5075002;28;20044;-73
2022/10/09 08:45:16;;;;;;;12.25;4.75;;;;;;;;;;5076195;28;20046;-73
2022/10/09 08:47:55;;;;;;;6.47;4.72;;;;;;;;;;5075992;28;20119;-73
2022/10/09 08:50:29;;;;;;;9.50;4.97;;;;;;;;;;5075357;28;20586;-73
2022/10/09 08:53:05;;;;;;;9.40;4.85;;;;;;;;;;5075941;28;20140;-73
2022/10/09 08:55:35;;;;;;;9.75;4.90;;;;;;;;;;5075823;28;20498;-73
2022/10/09 08:58:03;;;;;;;8.20;5.20;;;;;;;;;;5075233;28;20043;-73
2022/10/09 09:00:43;;;;;;;10.13;6.03;;;;;;;;;;5075481;28;20117;-74
2022/10/09 09:03:18;;;;;;;11.23;6.07;;;;;;;;;;5076366;28;20098;-73
2022/10/09 09:05:47;;;;;;;7.78;4.90;;;;;;;;;;5076092;28;20044;-74
2022/10/09 09:08:15;;;;;;;11.05;5.57;;;;;;;;;;5074970;28;20075;-73
2022/10/09 09:10:52;;;;;;;7.85;5.20;;;;;;;;;;5075400;28;20053;-73
2022/10/09 09:13:27;;;;;;;9.95;5.78;;;;;;;;;;5075002;28;20051;-73
2022/10/09 09:15:56;;;;;;;8.80;4.63;;;;;;;;;;5075522;28;20040;-73
2022/10/09 09:18:22;;;;;;;5.53;4.30;;;;;;;;;;5075030;28;20040;-73
2022/10/09 09:20:55;;;;;;;6.97;4.43;;;;;;;;;;5075670;28;20033;-73
2022/10/09 09:23:38;;;;;;;7.80;4.80;;;;;;;;;;5076119;28;20111;-73
2022/10/09 09:26:09;;;;;;;8.45;4.82;;;;;;;;;;5075386;28;20037;-73
2022/10/09 09:28:35;;;;;;;8.68;4.20;;;;;;;;;;5075003;28;20220;-73
2022/10/09 09:31:20;;;;;;;11.98;3.95;;;;;;;;;;5074424;28;20155;-73
2022/10/09 09:33:50;;;;;;;6.22;3.67;;;;;;;;;;5074676;28;20036;-73
2022/10/09 09:36:23;;;;;;;5.90;3.20;;;;;;;;;;5075117;28;20051;-73
2022/10/09 09:38:51;;;;;;;8.38;3.53;;;;;;;;;;5074698;28;20043;-73
2022/10/09 09:41:17;;;;;;;9.80;6.97;;;;;;;;;;5074464;28;20067;-73
2022/10/09 09:43:43;;;;;;;9.25;2.90;;;;;;;;;;5074451;28;20479;-73
2022/10/09 09:46:14;;;;;;;5.85;2.83;;;;;;;;;;5074826;28;20128;-73
2022/10/09 09:48:42;;;;;;;9.05;3.10;;;;;;;;;;5074893;28;20050;-73
2022/10/09 09:51:17;;;;;;;10.95;2.88;;;;;;;;;;5074714;28;20068;-73
2022/10/09 09:53:45;;;;;;;7.30;2.67;;;;;;;;;;5074516;28;20079;-73
2022/10/09 09:56:11;;;;;;;9.50;2.80;;;;;;;;;;5074401;28;20499;-73
2022/10/09 09:58:45;;;;;;;4.43;2.20;;;;;;;;;;5074206;28;20040;-73
2022/10/09 10:01:19;;;;;;;9.23;2.83;;;;;;;;;;5073623;28;20032;-73
2022/10/09 10:03:49;;;;;;;6.32;2.30;;;;;;;;;;5074047;28;20044;-73
2022/10/09 10:06:21;;;;;;;8.10;2.55;;;;;;;;;;5074140;28;20029;-73
2022/10/09 10:08:57;;;;;;;6.63;2.65;;;;;;;;;;5073983;28;20530;-73
2022/10/09 10:11:23;;;;;;;18.08;8.13;;;;;;;;;;5073943;28;20044;-73
2022/10/09 10:13:49;;;;;;;7.75;2.95;;;;;;;;;;5073651;28;20044;-73
2022/10/09 10:16:21;;;;;;;9.70;2.95;;;;;;;;;;5073384;28;20520;-73
2022/10/09 10:18:47;;;;;;;10.02;2.88;;;;;;;;;;5074703;28;20034;-73
2022/10/09 10:21:15;;;;;;;9.52;3.55;;;;;;;;;;5074269;28;20076;-73
2022/10/09 10:24:02;;;;;;;8.10;2.72;;;;;;;;;;5073917;28;20097;-73
2022/10/09 10:26:37;;;;;;;34.65;18.10;;;;;;;;;;5073180;28;20041;-73
2022/10/09 10:29:12;;;;;;;11.73;4.78;;;;;;;;;;5073629;28;20047;-73
2022/10/09 10:31:52;;;;;;;7.60;3.40;;;;;;;;;;5073080;28;20048;-73
2022/10/09 10:34:27;;;;;;;10.18;3.47;;;;;;;;;;5073982;28;20040;-73
2022/10/09 10:36:59;;;;;;;6.55;2.55;;;;;;;;;;5073785;28;20555;-73
2022/10/09 10:39:52;;;;;;;10.93;2.55;;;;;;;;;;5073438;28;20584;-73
2022/10/09 10:42:21;;;;;;;10.07;5.30;;;;;;;;;;5071216;28;20049;-73
2022/10/09 10:44:58;;;;;;;8.93;3.17;;;;;;;;;;5073215;28;20036;-73
2022/10/09 10:47:26;;;;;;;5.80;2.80;;;;;;;;;;5073887;28;20040;-73
2022/10/09 10:49:52;;;;;;;6.82;2.75;;;;;;;;;;5073037;28;20530;-73
2022/10/09 10:52:43;;;;;;;10.75;8.10;;;;;;;;;;5073608;28;20058;-73
2022/10/09 10:55:21;;;;;;;13.82;5.53;;;;;;;;;;5052845;28;20079;-74
2022/10/09 10:57:48;;;;;;;12.10;6.80;;;;;;;;;;5053002;28;20044;-74
2022/10/09 11:00:16;;;;;;;12.13;5.10;;;;;;;;;;5053463;28;20045;-74
2022/10/09 11:02:48;;;;;;;5.55;2.83;;;;;;;;;;5053270;28;20041;-74
2022/10/09 11:05:26;;;;;;;4.57;3.20;;;;;;;;;;5053513;28;20044;-74
2022/10/09 11:08:11;;;;;;;5.75;2.45;;;;;;;;;;5053660;28;20041;-73
2022/10/09 11:10:56;;;;;;;6.88;2.85;;;;;;;;;;5052282;28;20071;-74
2022/10/09 11:13:33;;;;;;;7.28;2.50;;;;;;;;;;5053774;28;20508;-73
2022/10/09 11:16:15;;;;;;;7.82;2.65;;;;;;;;;;5053562;28;20052;-74
2022/10/09 11:18:57;;;;;;;4.70;2.25;;;;;;;;;;5052519;28;20411;-73
2022/10/09 11:21:26;;;;;;;6.40;2.58;;;;;;;;;;5058194;28;20056;-72
2022/10/09 11:24:05;;;;;;;5.75;2.20;;;;;;;;;;5073653;28;20119;-73
2022/10/09 11:26:37;;;;;;;5.72;2.55;;;;;;;;;;5072203;28;20086;-72
2022/10/09 11:29:03;;;;;;;6.10;2.53;;;;;;;;;;5072976;28;20064;-73
2022/10/09 11:31:33;;;;;;;4.10;2.10;;;;;;;;;;5073257;28;20040;-73
2022/10/09 11:34:02;;;;;;;5.93;2.37;;;;;;;;;;5073189;28;20376;-72
2022/10/09 11:36:42;;;;;;;11.60;3.05;;;;;;;;;;5073483;28;20052;-72
2022/10/09 11:39:11;;;;;;;5.57;3.10;;;;;;;;;;5072139;28;20403;-73
2022/10/09 11:41:39;;;;;;;8.05;3.45;;;;;;;;;;5071924;28;20423;-73
2022/10/09 11:44:25;;;;;;;7.18;4.10;;;;;;;;;;5071838;28;20432;-73
2022/10/09 11:47:02;;;;;;;10.27;4.43;;;;;;;;;;5072529;28;20091;-73
2022/10/09 11:49:31;;;;;;;9.90;5.85;;;;;;;;;;5072976;28;20084;-73
2022/10/09 11:52:03;;;;;;;11.68;6.20;;;;;;;;;;5072749;28;20044;-73
2022/10/09 11:54:29;;;;;;;15.05;5.38;;;;;;;;;;5075129;28;20120;-73
2022/10/09 11:57:00;;;;;;;4.05;2.90;;;;;;;;;;5075191;28;20064;-73
2022/10/09 11:59:29;;;;;;;7.07;2.70;;;;;;;;;;5075634;28;20060;-73
2022/10/09 12:01:57;;;;;;;4.93;3.00;;;;;;;;;;5075665;28;20036;-73
2022/10/09 12:04:33;;;;;;;8.63;2.83;;;;;;;;;;5076435;28;20040;-73
2022/10/09 12:07:06;;;;;;;8.80;2.90;;;;;;;;;;5076195;28;20048;-73
2022/10/09 12:09:36;;;;;;;4.90;2.30;;;;;;;;;;5074230;28;20052;-73
2022/10/09 12:12:06;;;;;;;6.47;2.50;;;;;;;;;;5071285;28;20178;-74
2022/10/09 12:14:33;;;;;;;5.45;2.63;;;;;;;;;;5073200;28;20275;-74
2022/10/09 12:17:00;;;;;;;3.33;2.22;;;;;;;;;;5074678;28;20047;-74
2022/10/09 12:19:26;;;;;;;4.28;2.13;;;;;;;;;;5075460;28;20135;-75
2022/10/09 12:22:11;;;;;;;8.48;2.42;;;;;;;;;;5074204;28;20043;-72
2022/10/09 12:24:48;;;;;;;7.68;2.83;;;;;;;;;;5073635;28;20043;-73
2022/10/09 12:27:30;;;;;;;6.38;2.30;;;;;;;;;;5075852;28;20124;-73
2022/10/09 12:30:02;;;;;;;8.00;3.05;;;;;;;;;;5075676;28;20606;-74
2022/10/09 12:32:31;;;;;;;6.13;3.28;;;;;;;;;;5075692;28;20048;-74
2022/10/09 12:34:57;;;;;;;6.60;3.10;;;;;;;;;;5075570;28;20041;-73
2022/10/09 12:37:36;;;;;;;5.55;2.75;;;;;;;;;;5075946;28;20055;-74
2022/10/09 12:40:09;;;;;;;4.35;2.20;;;;;;;;;;5074914;28;20048;-73
2022/10/09 12:42:36;;;;;;;5.88;2.95;;;;;;;;;;5075720;28;20045;-73
2022/10/09 12:45:02;;;;;;;7.35;3.03;;;;;;;;;;5073994;28;20036;-74
2022/10/09 12:47:29;;;;;;;8.02;3.58;;;;;;;;;;5075144;28;20040;-72
2022/10/09 12:50:00;;;;;;;4.18;2.40;;;;;;;;;;5075100;28;20519;-73
2022/10/09 12:52:27;;;;;;;5.95;4.15;;;;;;;;;;5075755;28;20048;-73
2022/10/09 12:54:54;;;;;;;6.63;3.10;;;;;;;;;;5075183;28;20060;-73
2022/10/09 12:57:21;;;;;;;6.57;2.70;;;;;;;;;;5075692;28;20037;-72
2022/10/09 12:59:47;;;;;;;4.35;2.90;;;;;;;;;;5075198;28;20052;-73
2022/10/09 13:02:15;;;;;;;4.72;3.00;;;;;;;;;;5075561;28;20090;-73
2022/10/09 13:04:41;;;;;;;7.47;3.00;;;;;;;;;;5076002;28;20028;-73
2022/10/09 13:07:19;;;;;;;6.22;2.55;;;;;;;;;;5075299;28;20507;-72
2022/10/09 13:09:46;;;;;;;6.82;2.75;;;;;;;;;;5074680;28;20044;-72
2022/10/09 13:12:19;;;;;;;4.68;2.85;;;;;;;;;;5073953;28;20119;-73
2022/10/09 13:14:52;;;;;;;6.15;2.47;;;;;;;;;;5075165;28;20047;-73
2022/10/09 13:17:21;;;;;;;7.50;2.95;;;;;;;;;;5075189;28;20036;-73
2022/10/09 13:19:51;;;;;;;5.70;2.75;;;;;;;;;;5074666;28;20055;-73
2022/10/09 13:22:18;;;;;;;;;;;;;;;;;;5075522;28;20055;-73
2022/10/09 13:24:44;;;;;;;5.43;3.85;;;;;;;;;;5073624;28;19912;-73
2022/10/09 13:27:13;;;;;;;7.07;4.47;;;;;;;;;;5073362;28;20044;-73
2022/10/09 13:29:40;;;;;;;6.63;3.45;;;;;;;;;;5073302;28;20058;-74
2022/10/09 13:32:07;;;;;;;5.18;2.63;;;;;;;;;;5074599;28;20040;-73
2022/10/09 13:34:34;;;;;;;5.25;2.50;;;;;;;;;;5074253;28;20036;-75
2022/10/09 13:37:00;;;;;;;10.55;3.20;;;;;;;;;;5073994;28;20072;-73
2022/10/09 13:39:26;;;;;;;4.95;2.70;;;;;;;;;;5073619;28;20052;-73
2022/10/09 13:41:56;;;;;;;4.18;2.70;;;;;;;;;;5073437;28;20036;-73
2022/10/09 13:44:22;;;;;;;3.65;2.90;;;;;;;;;;5074888;28;20052;-74
2022/10/09 13:46:48;;;;;;;5.40;2.60;;;;;;;;;;5074175;28;20068;-73
2022/10/09 13:49:15;;;;;;;6.38;3.67;;;;;;;;;;5074304;28;20093;-73
2022/10/09 13:51:41;;;;;;;5.45;3.08;;;;;;;;;;5074195;28;20060;-74
2022/10/09 13:54:08;;;;;;;6.00;2.47;;;;;;;;;;5074320;28;20083;-73
2022/10/09 13:56:34;;;;;;;6.57;2.95;;;;;;;;;;5074114;28;20527;-73
2022/10/09 13:59:00;;;;;;;4.38;2.47;;;;;;;;;;5074594;28;20064;-73
2022/10/09 14:01:26;;;;;;;6.43;2.80;;;;;;;;;;5073471;28;20056;-73
2022/10/09 14:03:53;;;;;;;6.05;2.83;;;;;;;;;;5068762;28;20515;-73
2022/10/09 14:06:21;;;;;;;4.82;2.72;;;;;;;;;;5071693;28;20505;-73
2022/10/09 14:08:48;;;;;;;5.80;3.05;;;;;;;;;;5073583;28;20119;-73
2022/10/09 14:11:14;;;;;;;5.43;2.70;;;;;;;;;;5074895;28;20051;-73
2022/10/09 14:13:40;;;;;;;4.00;2.53;;;;;;;;;;5074717;28;20078;-73
2022/10/09 14:16:06;;;;;;;4.60;3.03;;;;;;;;;;5074724;28;20037;-73
2022/10/09 14:18:33;;;;;;;5.00;3.10;;;;;;;;;;5074442;28;20032;-73
2022/10/09 14:20:59;;;;;;;7.45;2.70;;;;;;;;;;5075066;28;20113;-73
2022/10/09 14:23:25;;;;;;;4.75;3.20;;;;;;;;;;5075001;28;20040;-72
2022/10/09 14:25:51;;;;;;;11.55;6.30;;;;;;;;;;5074735;28;20040;-73
2022/10/09 14:28:17;;;;;;;8.60;5.22;;;;;;;;;;5073673;28;20037;-73
2022/10/09 14:30:43;;;;;;;3.45;3.15;;;;;;;;;;5074350;28;20045;-73
2022/10/09 14:33:11;;;;;;;4.60;2.80;;;;;;;;;;5074642;28;20107;-73
2022/10/09 14:35:38;;;;;;;4.95;3.03;;;;;;;;;;5074907;28;20502;-72
2022/10/09 14:38:04;;;;;;;8.65;3.10;;;;;;;;;;5074283;28;20115;-73
2022/10/09 14:40:30;;;;;;;6.03;3.28;;;;;;;;;;5073876;28;20047;-72
2022/10/09 14:42:57;;;;;;;7.07;3.38;;;;;;;;;;5074189;28;20086;-73
2022/10/09 14:45:23;;;;;;;5.63;3.35;;;;;;;;;;5052635;28;20119;-72
2022/10/09 14:47:49;;;;;;;5.75;3.40;;;;;;;;;;5059628;28;20058;-72